Socorro, NM (87801)

9:25 AM MDT on August 02, 2015 (GMT -0600)
Bursum Place | | Change Station
CLOSE
Current Station
Personal Weather Station
Location: Socorro, NM
Elevation: 4660 ft
Nearby Weather Stations

Elev 4660 ft 34.07 °N, 106.90 °W | Updated 7 minutes ago

Scattered Clouds
Scattered Clouds
74.0 °F
Feels Like 76 °F
N
0.0
Wind Variable Wind from NE
Gusts 1.0 mph

Today
High -- | Low -- °F
--% Chance of Precip.
Yesterday
High -- | Low -- °F
Precip. -- in
6:19 AM 8:07 PM
Waning Gibbous, 93% visible
Pressure 30.17 in
Visibility 10.0 miles
Clouds Scattered Clouds 11000 ft
Heat Index 76 °F
Dew Point 61 °F
Humidity 64%
Rainfall 0.00 in
Snow Depth Not available.
UV 3 out of 12
Pollen 3.80 out of 12
Air Quality Not available.
Flu Activity Not available.
METAR KONM 021515Z AUTO 34003KT 10SM SCT110 22/16 A3017 RMK AO2 T02170157

More Conditions Fewer Conditions

Pressure 30.17 in
Visibility 10.0 miles
Clouds Scattered Clouds 11000 ft
Heat Index 76 °F
Dew Point 61 °F
Humidity 64%
Rainfall 0.00 in
Snow Depth Not available.
UV 3 out of 12
Pollen 3.80 out of 12
Air Quality Not available.
Flu Activity Not available.
METAR KONM 021515Z AUTO 34003KT 10SM SCT110 22/16 A3017 RMK AO2 T02170157

More Conditions Fewer Conditions

10-Day Weather Forecast

×

Almanac

Astronomy

Aug. 02, 2015 Rise Set
Actual Time
Civil Twilight
Nautical Twilight
Astronomical Twilight
Moon
Length of Visible Light
Length of Day
Tomorrow will be .
, % of the Moon is Illuminated

Today's Extremes

State Highs State Lows

Community

WunderPhotos

Upload Photos

1,843,280 photos uploaded!

WunderBlogs® & News

Nearby

Air Quality

  Air Quality AQ Index Pollutant
Not available.

Snow Depth

Station Depth Elevation

Earthquake Activity

City Distance Mag. Time & Date
Minimum magnitude displayed is 2.5.

Coastal Water Temperatures

Place Temperature

Stations

Nearby Weather Stations

Station Location Temp. Windchill Dew Point Humidity Wind Precip. Elev Updated Type